Terminal Aerodrome Forecast
Issued by NWS Wilmington, OH

Current Version | Previous Version | Graphics & Text | Print | Product List | Glossary On
Versions: 1 2 3 4 5 6 7 8 9 10 11 12 13 14 15 16 17 18 19 20 21 22 23 24
589
FTUS41 KILN 072343
TAFCMH
TAF
KCMH 072343Z 0800/0824 19008KT P6SM BKN150
     FM080600 20006KT P6SM BKN050 OVC120
     FM080800 21006KT P6SM -SHRA BKN025 OVC080
     FM081100 25005KT 5SM BR OVC015
     FM081600 26006KT P6SM BKN035 OVC100
     FM082100 27008KT P6SM -SHRA BKN025 OVC040=

USA.gov is the U.S. government's official web portal to all federal, state and local government web resources and services.